Time;durP1;ratioP1;P1;durP2;ratioP2;P2;SDS_P1;SDS_P2;PMS_P1;PMS_P2;Temp;Humidity;BMP_temperature;BMP_pressure;BME280_temperature;BME280_humidity;BME280_pressure;Samples;Min_cycle;Max_cycle;Signal;HPM_P1;HPM_P2
2023/06/21 00:01:38;;;;;;;13.20;11.90;;;;;;;21.62;55.82;97854.55;106932;1279;22547;-82
2023/06/21 00:04:05;;;;;;;13.00;11.40;;;;;;;21.57;55.77;97851.73;106885;1279;22643;-81
2023/06/21 00:06:34;;;;;;;12.70;11.40;;;;;;;21.52;55.98;97852.46;106861;1279;23156;-81
2023/06/21 00:09:05;;;;;;;12.40;11.30;;;;;;;21.47;55.93;97852.02;106892;1279;25507;-82
2023/06/21 00:11:32;;;;;;;12.80;11.40;;;;;;;21.44;56.15;97850.01;106990;1279;22543;-82
2023/06/21 00:13:59;;;;;;;13.00;11.70;;;;;;;21.39;56.12;97852.05;106869;1279;25340;-82
2023/06/21 00:16:25;;;;;;;15.10;11.90;;;;;;;21.32;56.24;97852.09;106878;1279;25489;-81
2023/06/21 00:18:52;;;;;;;12.30;11.10;;;;;;;21.28;56.45;97855.40;106824;1279;22524;-81
2023/06/21 00:21:19;;;;;;;14.50;12.00;;;;;;;21.24;56.53;97855.98;106853;1279;22577;-81
2023/06/21 00:23:45;;;;;;;13.50;11.30;;;;;;;21.19;56.62;97859.73;106854;1279;23954;-81
2023/06/21 00:26:12;;;;;;;13.80;12.50;;;;;;;21.13;56.71;97864.73;106934;1279;22657;-82
2023/06/21 00:28:39;;;;;;;12.80;11.40;;;;;;;21.07;56.96;97865.98;106818;1263;23064;-81
2023/06/21 00:31:10;;;;;;;12.10;10.90;;;;;;;21.04;57.32;97867.42;106938;1278;22626;-81
2023/06/21 00:33:38;;;;;;;14.20;11.10;;;;;;;21.04;57.63;97866.02;107011;1279;24065;-81
2023/06/21 00:36:05;;;;;;;11.50;10.50;;;;;;;21.03;57.72;97865.52;107029;1279;22602;-81
2023/06/21 00:38:34;;;;;;;11.70;10.50;;;;;;;20.99;57.69;97863.59;106578;1278;24256;-81
2023/06/21 00:41:07;;;;;;;12.00;10.90;;;;;;;20.97;57.75;97862.00;106603;1279;25662;-81
2023/06/21 00:43:34;;;;;;;12.20;11.00;;;;;;;20.90;57.61;97861.58;106931;1279;25235;-82
2023/06/21 00:46:01;;;;;;;13.60;11.20;;;;;;;20.84;58.03;97860.31;106904;1278;24253;-81
2023/06/21 00:48:28;;;;;;;12.50;11.40;;;;;;;20.78;57.91;97859.21;106964;1278;25340;-82
2023/06/21 00:50:58;;;;;;;11.80;10.60;;;;;;;20.74;58.05;97861.86;106863;1278;26564;-82
2023/06/21 00:53:27;;;;;;;11.70;10.70;;;;;;;20.71;58.50;97858.16;106810;1279;24250;-81
2023/06/21 00:56:00;;;;;;;13.00;11.80;;;;;;;20.71;58.58;97860.42;106966;1255;25489;-82
2023/06/21 00:58:28;;;;;;;17.60;13.80;;;;;;;20.73;58.84;97861.08;106982;1278;24265;-80
2023/06/21 01:00:54;;;;;;;12.60;11.30;;;;;;;20.71;58.73;97865.66;106953;1279;22527;-80
2023/06/21 01:03:24;;;;;;;13.60;12.20;;;;;;;20.70;58.84;97866.58;106915;1278;25287;-81
2023/06/21 01:06:15;;;;;;;13.00;11.90;;;;;;;20.69;58.99;97868.21;106930;1278;22531;-82
2023/06/21 01:09:03;;;;;;;13.50;12.10;;;;;;;20.68;59.16;97871.95;106804;1278;22531;-81
2023/06/21 01:11:36;;;;;;;13.60;12.20;;;;;;;20.62;58.99;97868.86;106847;1278;22648;-81
2023/06/21 01:14:39;;;;;;;14.50;13.00;;;;;;;20.54;59.13;97874.75;106743;1278;22558;-82
2023/06/21 01:17:10;;;;;;;13.40;12.00;;;;;;;20.46;59.11;97875.99;106851;1278;22583;-82
2023/06/21 01:19:45;;;;;;;12.40;11.20;;;;;;;20.43;59.51;97874.47;106955;1278;22533;-82
2023/06/21 01:22:19;;;;;;;13.60;11.60;;;;;;;20.49;59.76;97878.63;107066;1278;22573;-82
2023/06/21 01:25:17;;;;;;;14.30;12.90;;;;;;;20.49;59.70;97874.33;107185;1278;22555;-82
2023/06/21 01:28:06;;;;;;;14.00;12.00;;;;;;;20.44;59.70;97877.05;107048;1278;22587;-80
2023/06/21 01:30:34;;;;;;;13.40;12.10;;;;;;;20.44;60.24;97876.83;106948;1266;22615;-81
2023/06/21 01:33:05;;;;;;;15.10;13.20;;;;;;;20.41;60.00;97874.59;106937;1279;25297;-81
2023/06/21 01:35:32;;;;;;;13.10;11.90;;;;;;;20.37;60.06;97882.25;106882;1278;22534;-81
2023/06/21 01:38:02;;;;;;;12.40;11.30;;;;;;;20.32;60.31;97886.53;106840;1278;22608;-82
2023/06/21 01:40:29;;;;;;;13.90;12.50;;;;;;;20.33;60.65;97891.41;106828;1278;23325;-82
2023/06/21 01:42:56;;;;;;;12.30;11.10;;;;;;;20.36;60.64;97892.64;106488;1278;22527;-81
2023/06/21 01:45:23;;;;;;;14.20;12.80;;;;;;;20.38;60.88;97893.45;106487;1278;22830;-80
2023/06/21 01:47:50;;;;;;;12.10;11.00;;;;;;;20.37;60.86;97892.34;106835;1279;23451;-81
2023/06/21 01:50:19;;;;;;;12.30;11.10;;;;;;;20.40;60.95;97881.77;106863;1279;22541;-81
2023/06/21 01:52:46;;;;;;;12.90;11.10;;;;;;;20.46;61.06;97871.70;106507;1279;22744;-81
2023/06/21 01:55:14;;;;;;;11.50;10.40;;;;;;;20.51;61.18;97864.60;106529;1278;22542;-80
2023/06/21 01:57:41;;;;;;;13.60;12.40;;;;;;;20.57;61.34;97857.36;106482;1278;22544;-81
2023/06/21 02:00:16;;;;;;;12.40;11.00;;;;;;;20.60;61.56;97853.27;106511;1278;23908;-81
2023/06/21 02:02:52;;;;;;;13.40;12.10;;;;;;;20.63;61.87;97853.33;106898;1278;22531;-80
2023/06/21 02:05:20;;;;;;;13.30;11.90;;;;;;;20.66;61.97;97851.73;106538;1278;22534;-80
2023/06/21 02:07:48;;;;;;;13.40;11.50;;;;;;;20.67;61.90;97855.41;106771;1278;24562;-82
2023/06/21 02:10:18;;;;;;;12.80;11.70;;;;;;;20.68;61.95;97854.33;106950;1278;22561;-78
2023/06/21 02:12:50;;;;;;;14.00;12.60;;;;;;;20.68;61.83;97858.42;106806;1278;22563;-78
2023/06/21 02:15:18;;;;;;;14.60;13.00;;;;;;;20.62;61.65;97855.73;107004;1278;24272;-78
2023/06/21 02:17:50;;;;;;;14.20;12.70;;;;;;;20.53;61.73;97854.09;106831;1278;22619;-77
2023/06/21 02:20:19;;;;;;;13.50;12.20;;;;;;;20.45;61.85;97853.15;106875;1278;22545;-77
2023/06/21 02:22:46;;;;;;;13.60;12.20;;;;;;;20.37;61.81;97849.27;106574;1278;22549;-76
2023/06/21 02:25:15;;;;;;;13.80;12.30;;;;;;;20.33;61.92;97846.91;106583;1278;25423;-77
2023/06/21 02:27:42;;;;;;;14.60;13.20;;;;;;;20.27;61.90;97840.73;106474;1278;24363;-77
2023/06/21 02:30:10;;;;;;;13.60;12.10;;;;;;;20.21;62.03;97840.62;106883;1278;22704;-77
2023/06/21 02:32:37;;;;;;;14.10;12.80;;;;;;;20.13;62.16;97840.80;106549;1278;23934;-77
2023/06/21 02:35:05;;;;;;;14.00;12.50;;;;;;;20.07;62.24;97845.90;106526;1278;22524;-78
2023/06/21 02:37:32;;;;;;;14.50;13.10;;;;;;;20.03;62.33;97848.34;106612;1278;22719;-76
2023/06/21 02:39:59;;;;;;;14.40;12.90;;;;;;;19.99;62.34;97853.49;106550;1278;22534;-77
2023/06/21 02:42:27;;;;;;;14.90;13.50;;;;;;;19.95;62.65;97857.80;106529;1278;22997;-77
2023/06/21 02:44:54;;;;;;;13.80;12.50;;;;;;;19.89;62.74;97859.00;106532;1278;22545;-77
2023/06/21 02:47:20;;;;;;;14.30;13.10;;;;;;;19.80;62.67;97858.20;106471;1278;22583;-78
2023/06/21 02:49:47;;;;;;;14.00;12.60;;;;;;;19.68;62.76;97856.79;106540;1278;22593;-78
2023/06/21 02:52:14;;;;;;;15.10;13.00;;;;;;;19.57;63.31;97856.99;106627;1278;22600;-78
2023/06/21 02:54:41;;;;;;;14.70;13.20;;;;;;;19.45;64.29;97860.50;106531;1278;22863;-78
2023/06/21 02:57:08;;;;;;;12.80;11.60;;;;;;;19.35;64.66;97868.17;106837;1278;22530;-79
2023/06/21 02:59:36;;;;;;;12.90;11.60;;;;;;;19.29;65.52;97867.48;106687;1278;22746;-77
2023/06/21 03:02:03;;;;;;;13.80;12.10;;;;;;;19.27;66.30;97866.73;106641;1266;22578;-76
2023/06/21 03:04:30;;;;;;;12.60;10.80;;;;;;;19.39;65.86;97865.29;106633;1278;22795;-76
2023/06/21 03:06:56;;;;;;;11.90;10.70;;;;;;;19.44;65.83;97864.08;106644;1278;22563;-76
2023/06/21 03:09:23;;;;;;;12.40;11.10;;;;;;;19.49;65.59;97863.34;106484;1278;24206;-76
2023/06/21 03:11:50;;;;;;;13.00;11.60;;;;;;;19.54;65.80;97863.11;106504;1278;24126;-76
2023/06/21 03:14:17;;;;;;;10.10;9.20;;;;;;;19.54;66.09;97863.42;106633;1278;22541;-76
2023/06/21 03:16:44;;;;;;;9.60;8.70;;;;;;;19.63;67.00;97862.52;106647;1278;22548;-77
2023/06/21 03:19:11;;;;;;;10.70;9.80;;;;;;;19.78;67.20;97863.23;106589;1278;22607;-77
2023/06/21 03:21:38;;;;;;;11.70;9.90;;;;;;;19.93;67.33;97861.82;106484;1278;24232;-77
2023/06/21 03:24:05;;;;;;;13.90;11.50;;;;;;;20.08;67.83;97867.48;106644;1278;25300;-77
2023/06/21 03:26:35;;;;;;;13.30;12.00;;;;;;;20.21;66.93;97873.67;106609;1278;22579;-77
2023/06/21 03:29:02;;;;;;;12.30;11.10;;;;;;;20.19;66.18;97872.63;106721;1278;22537;-75
2023/06/21 03:31:29;;;;;;;11.60;10.40;;;;;;;20.12;66.20;97875.00;106885;1278;22558;-75
2023/06/21 03:33:56;;;;;;;13.40;12.20;;;;;;;20.09;66.44;97872.36;106515;1278;23945;-75
2023/06/21 03:36:23;;;;;;;12.90;11.70;;;;;;;20.07;66.34;97877.17;106496;1278;22546;-75
2023/06/21 03:38:50;;;;;;;13.80;12.40;;;;;;;20.00;66.30;97877.03;106492;1278;22530;-75
2023/06/21 03:41:17;;;;;;;12.30;11.30;;;;;;;19.93;66.49;97880.49;106566;1278;23928;-75
2023/06/21 03:43:45;;;;;;;13.30;12.10;;;;;;;19.93;66.88;97881.97;106562;1278;22604;-75
2023/06/21 03:46:12;;;;;;;12.70;11.40;;;;;;;19.92;66.61;97885.38;106530;1278;25355;-75
2023/06/21 03:48:39;;;;;;;10.90;9.70;;;;;;;19.99;67.12;97887.40;106509;1278;25481;-74
2023/06/21 03:51:07;;;;;;;13.10;11.80;;;;;;;20.15;67.47;97894.91;106521;1278;25354;-75
2023/06/21 03:53:34;;;;;;;13.70;12.00;;;;;;;20.21;67.39;97895.16;106528;1278;26604;-76
2023/06/21 03:56:00;;;;;;;13.60;12.30;;;;;;;20.17;67.60;97896.81;106991;1278;22751;-76
2023/06/21 03:58:27;;;;;;;12.80;11.50;;;;;;;20.16;67.80;97896.88;106612;1278;25326;-76
2023/06/21 04:00:54;;;;;;;12.80;11.20;;;;;;;20.24;67.70;97899.62;106527;1278;22661;-76
2023/06/21 04:03:21;;;;;;;12.10;11.00;;;;;;;20.33;68.00;97900.95;106539;1278;22531;-75
2023/06/21 04:05:47;;;;;;;14.40;13.00;;;;;;;20.40;68.00;97899.67;106488;1278;24186;-77
2023/06/21 04:08:14;;;;;;;13.20;11.20;;;;;;;20.52;67.84;97897.62;106517;1278;22541;-76
2023/06/21 04:10:41;;;;;;;11.60;10.50;;;;;;;20.67;68.02;97898.54;106643;1278;25424;-76
2023/06/21 04:13:08;;;;;;;9.70;8.80;;;;;;;20.87;68.40;97900.35;107258;1278;23944;-77
2023/06/21 04:15:35;;;;;;;13.10;11.70;;;;;;;21.20;68.33;97903.45;107018;1274;22575;-77
2023/06/21 04:18:02;;;;;;;13.30;11.90;;;;;;;21.50;68.05;97900.06;106595;1278;25405;-76
2023/06/21 04:20:30;;;;;;;13.20;11.80;;;;;;;21.71;67.57;97902.30;106654;1277;22536;-75
2023/06/21 04:22:57;;;;;;;13.90;12.60;;;;;;;21.85;67.47;97905.13;106751;1277;22592;-75
2023/06/21 04:25:24;;;;;;;15.30;13.60;;;;;;;21.94;67.25;97907.29;106780;1277;23930;-74
2023/06/21 04:27:51;;;;;;;12.90;11.70;;;;;;;22.02;67.21;97906.35;106739;1277;22652;-76
2023/06/21 04:30:17;;;;;;;15.60;11.50;;;;;;;22.13;67.07;97906.10;106742;1277;23247;-75
2023/06/21 04:32:45;;;;;;;17.00;13.50;;;;;;;22.24;66.92;97907.34;106742;1277;22713;-76
2023/06/21 04:35:14;;;;;;;15.60;13.30;;;;;;;22.29;66.78;97910.14;106720;1278;22860;-77
2023/06/21 04:37:45;;;;;;;14.80;13.30;;;;;;;22.32;66.77;97906.95;107145;1277;22563;-76
2023/06/21 04:40:16;;;;;;;13.60;12.30;;;;;;;22.37;66.86;97905.05;107047;1277;24268;-79
2023/06/21 04:42:46;;;;;;;16.20;12.00;;;;;;;22.48;66.77;97902.89;106961;1277;22632;-78
2023/06/21 04:45:16;;;;;;;11.00;9.80;;;;;;;22.57;66.73;97893.24;106823;1277;289409;-79
2023/06/21 04:47:48;;;;;;;15.10;13.10;;;;;;;22.69;66.63;97892.79;106752;1277;22542;-76
2023/06/21 04:50:16;;;;;;;14.80;12.90;;;;;;;22.74;66.41;97887.60;107035;1277;22556;-76
2023/06/21 04:52:49;;;;;;;18.70;13.20;;;;;;;22.78;66.41;97886.91;106826;1277;25440;-79
2023/06/21 04:55:20;;;;;;;15.40;13.40;;;;;;;22.77;66.30;97889.73;106624;1277;25345;-79
2023/06/21 04:57:48;;;;;;;24.50;15.60;;;;;;;22.79;66.33;97890.69;107161;1277;23855;-82
2023/06/21 05:00:15;;;;;;;48.10;13.60;;;;;;;22.84;66.50;97892.14;107083;1277;25226;-80
2023/06/21 05:02:41;;;;;;;24.60;13.40;;;;;;;22.92;66.32;97892.98;107022;1278;22551;-78
2023/06/21 05:05:09;;;;;;;17.90;15.10;;;;;;;22.96;66.27;97896.20;106752;1277;22533;-78
2023/06/21 05:07:37;;;;;;;28.50;25.40;;;;;;;23.02;66.50;97898.52;106685;1277;22579;-78
2023/06/21 05:10:07;;;;;;;23.60;17.10;;;;;;;23.12;66.44;97896.54;106652;1278;22600;-78
2023/06/21 05:12:35;;;;;;;16.80;13.30;;;;;;;23.24;66.53;97892.55;106987;1277;22524;-78
2023/06/21 05:15:02;;;;;;;13.00;11.70;;;;;;;23.33;66.25;97896.14;106956;1277;23104;-78
2023/06/21 05:17:29;;;;;;;13.20;11.40;;;;;;;23.34;65.86;97893.55;106624;1277;25514;-78
2023/06/21 05:19:55;;;;;;;13.20;11.80;;;;;;;23.35;65.62;97895.27;107011;1277;22565;-79
2023/06/21 05:22:22;;;;;;;16.90;11.50;;;;;;;23.35;65.38;97896.16;106608;1277;22542;-79
2023/06/21 05:24:49;;;;;;;13.90;11.10;;;;;;;23.36;65.30;97898.85;106623;1277;23307;-78
2023/06/21 05:27:15;;;;;;;15.20;12.20;;;;;;;23.36;64.99;97897.81;106535;1278;25481;-79
2023/06/21 05:29:42;;;;;;;17.10;12.50;;;;;;;23.38;64.96;97897.90;106623;1277;22544;-78
2023/06/21 05:32:08;;;;;;;13.90;12.20;;;;;;;23.42;64.73;97896.58;106607;1277;26153;-78
2023/06/21 05:34:35;;;;;;;20.00;14.40;;;;;;;23.49;64.83;97895.05;106811;1277;22546;-79
2023/06/21 05:37:02;;;;;;;23.60;13.50;;;;;;;23.54;64.63;97897.84;106643;1277;25399;-79
2023/06/21 05:39:28;;;;;;;33.50;17.20;;;;;;;23.59;64.86;97900.45;106944;1278;22522;-78
2023/06/21 05:41:55;;;;;;;38.80;14.10;;;;;;;23.71;64.93;97906.89;106737;1277;22815;-79
2023/06/21 05:44:21;;;;;;;15.50;12.50;;;;;;;23.83;64.78;97905.17;106605;1277;22524;-79
2023/06/21 05:46:48;;;;;;;15.80;12.30;;;;;;;23.92;64.38;97907.23;106618;1277;22547;-79
2023/06/21 05:49:15;;;;;;;13.40;11.80;;;;;;;23.98;64.36;97913.95;106604;1277;25494;-78
2023/06/21 05:51:41;;;;;;;12.90;11.60;;;;;;;24.07;64.14;97914.92;106594;1278;22827;-79
2023/06/21 05:54:08;;;;;;;12.50;11.20;;;;;;;24.14;63.71;97913.45;106626;1277;22803;-79
2023/06/21 05:56:37;;;;;;;19.50;11.80;;;;;;;24.21;63.70;97914.34;106953;1277;22551;-79
2023/06/21 05:59:04;;;;;;;15.10;11.90;;;;;;;24.26;63.32;97914.20;107008;1278;22595;-79
2023/06/21 06:01:30;;;;;;;16.60;11.30;;;;;;;24.29;63.04;97917.44;106602;1277;22559;-78
2023/06/21 06:03:57;;;;;;;13.10;11.40;;;;;;;24.37;62.89;97918.00;106741;1278;22695;-80
2023/06/21 06:06:34;;;;;;;15.40;11.40;;;;;;;24.45;62.72;97922.93;107001;1277;22667;-79
2023/06/21 06:09:02;;;;;;;14.30;11.30;;;;;;;24.50;62.58;97921.91;106771;1277;25247;-78
2023/06/21 06:11:29;;;;;;;12.50;11.20;;;;;;;24.56;62.49;97925.23;106790;1277;22526;-78
2023/06/21 06:13:55;;;;;;;12.80;11.20;;;;;;;24.59;62.18;97924.60;106655;1277;22702;-79
2023/06/21 06:16:22;;;;;;;15.50;11.30;;;;;;;24.62;62.09;97923.75;106952;1277;25473;-79
2023/06/21 06:18:48;;;;;;;12.50;11.20;;;;;;;24.64;61.89;97922.73;106997;1277;22544;-79
2023/06/21 06:21:21;;;;;;;12.40;11.20;;;;;;;24.67;61.79;97919.58;106948;1277;24061;-79
2023/06/21 06:23:52;;;;;;;12.60;11.10;;;;;;;24.73;61.71;97912.19;107023;1277;25387;-79
2023/06/21 06:26:22;;;;;;;12.80;11.10;;;;;;;24.79;61.58;97911.55;106680;1256;24185;-79
2023/06/21 06:28:53;;;;;;;15.50;10.80;;;;;;;24.88;61.35;97913.30;106649;1277;24231;-79
2023/06/21 06:31:25;;;;;;;12.70;10.70;;;;;;;24.96;61.28;97908.80;106654;1278;22540;-79
2023/06/21 06:33:52;;;;;;;12.70;11.10;;;;;;;25.05;61.00;97911.73;106976;1277;25345;-79
2023/06/21 06:36:19;;;;;;;14.50;11.50;;;;;;;25.11;60.69;97912.74;106990;1277;22604;-80
2023/06/21 06:38:47;;;;;;;12.70;11.50;;;;;;;25.19;60.95;97910.72;107025;1277;23905;-80
2023/06/21 06:41:15;;;;;;;12.90;11.60;;;;;;;25.26;60.28;97914.26;107150;1278;23142;-80
2023/06/21 06:43:41;;;;;;;16.20;12.10;;;;;;;25.35;60.42;97914.17;107058;1277;24225;-79
2023/06/21 06:46:08;;;;;;;13.40;11.30;;;;;;;25.46;59.81;97911.46;107109;1277;25469;-78
2023/06/21 06:48:35;;;;;;;15.90;12.30;;;;;;;25.53;59.69;97915.95;106745;1277;22652;-80
2023/06/21 06:51:02;;;;;;;13.80;11.30;;;;;;;25.56;59.32;97911.20;106692;1277;25355;-79
2023/06/21 06:53:29;;;;;;;13.00;10.50;;;;;;;25.64;59.84;97908.18;107035;1277;22686;-78
2023/06/21 06:55:58;;;;;;;15.70;10.70;;;;;;;25.77;59.27;97910.36;106623;1278;22533;-79
2023/06/21 06:58:26;;;;;;;12.80;10.00;;;;;;;25.91;59.28;97912.30;106638;1277;22609;-80
2023/06/21 07:00:54;;;;;;;14.70;10.50;;;;;;;25.97;58.76;97913.70;106987;1277;22721;-79
2023/06/21 07:03:20;;;;;;;11.50;10.30;;;;;;;26.03;58.75;97911.23;107053;1277;22566;-79
2023/06/21 07:05:48;;;;;;;14.40;9.60;;;;;;;26.13;58.35;97908.98;106992;1277;25328;-79
2023/06/21 07:08:16;;;;;;;13.40;10.40;;;;;;;26.22;57.65;97909.48;106970;1277;23933;-80
2023/06/21 07:10:43;;;;;;;13.60;10.10;;;;;;;26.28;57.31;97910.64;106994;1277;22545;-79
2023/06/21 07:13:10;;;;;;;12.30;10.10;;;;;;;26.35;56.58;97914.47;107055;1277;25265;-79
2023/06/21 07:15:36;;;;;;;10.80;9.00;;;;;;;26.36;56.34;97920.47;107043;1277;24097;-80
2023/06/21 07:18:03;;;;;;;10.80;9.50;;;;;;;26.40;56.49;97921.21;107039;1277;23922;-80
2023/06/21 07:20:31;;;;;;;12.70;9.70;;;;;;;26.49;56.66;97919.21;106985;1277;22530;-80
2023/06/21 07:22:59;;;;;;;12.50;10.20;;;;;;;26.61;56.42;97923.58;106956;1278;22554;-79
2023/06/21 07:25:26;;;;;;;11.00;10.10;;;;;;;26.72;56.47;97926.58;106960;1277;22534;-80
2023/06/21 07:27:53;;;;;;;12.00;10.00;;;;;;;26.89;56.42;97928.03;106933;1277;22620;-80
2023/06/21 07:30:22;;;;;;;11.80;10.60;;;;;;;27.04;55.95;97921.44;106934;1277;22541;-80
2023/06/21 07:32:50;;;;;;;10.90;9.80;;;;;;;27.23;55.72;97923.59;107050;1277;24989;-79
2023/06/21 07:35:17;;;;;;;11.60;9.90;;;;;;;27.42;55.67;97922.77;107076;1277;22666;-80
2023/06/21 07:37:45;;;;;;;12.30;10.00;;;;;;;27.64;55.37;97919.70;107136;1277;22682;-80
2023/06/21 07:40:12;;;;;;;11.00;9.70;;;;;;;27.86;54.96;97922.80;106979;1277;22653;-80
2023/06/21 07:42:39;;;;;;;14.00;9.70;;;;;;;28.05;54.24;97924.47;106993;1277;22534;-80
2023/06/21 07:45:09;;;;;;;13.10;9.60;;;;;;;28.19;53.82;97928.41;107051;1277;25233;-80
2023/06/21 07:47:36;;;;;;;11.50;9.10;;;;;;;28.38;53.82;97923.03;106980;1277;22868;-80
2023/06/21 07:50:04;;;;;;;10.90;8.80;;;;;;;28.57;52.91;97923.02;107084;1277;25301;-80
2023/06/21 07:52:49;;;;;;;10.70;9.00;;;;;;;28.67;52.41;97921.52;106915;1278;25233;-80
2023/06/21 07:55:16;;;;;;;10.80;9.70;;;;;;;28.76;52.49;97924.48;107033;1278;23449;-80
2023/06/21 07:57:43;;;;;;;18.00;10.40;;;;;;;28.82;51.71;97924.06;106984;1277;23156;-78
2023/06/21 08:00:11;;;;;;;14.40;9.80;;;;;;;28.91;52.19;97924.23;107026;1277;22562;-79
2023/06/21 08:02:44;;;;;;;15.30;9.50;;;;;;;29.02;51.90;97920.52;107004;1277;25826;-81
2023/06/21 08:05:11;;;;;;;15.80;9.80;;;;;;;29.04;51.39;97923.05;106995;1277;22532;-79
2023/06/21 08:07:37;;;;;;;14.00;9.00;;;;;;;29.03;51.00;97926.21;106893;1277;22651;-80
2023/06/21 08:10:04;;;;;;;10.90;9.70;;;;;;;29.03;51.18;97921.55;106671;1277;22747;-80
2023/06/21 08:12:31;;;;;;;11.40;9.50;;;;;;;29.04;50.75;97924.46;106879;1277;22565;-79
2023/06/21 08:15:01;;;;;;;12.20;9.90;;;;;;;29.06;51.13;97918.34;106623;1278;25708;-80
2023/06/21 08:17:27;;;;;;;14.80;10.10;;;;;;;29.04;50.51;97920.66;106640;1266;24072;-79
2023/06/21 08:19:54;;;;;;;11.60;9.10;;;;;;;29.05;50.52;97923.42;106969;1277;25492;-79
2023/06/21 08:22:21;;;;;;;11.60;9.30;;;;;;;29.17;50.50;97920.75;106988;1278;22698;-79
2023/06/21 08:24:47;;;;;;;20.30;9.30;;;;;;;29.31;50.19;97921.78;106938;1277;24700;-79
2023/06/21 08:27:14;;;;;;;10.90;9.20;;;;;;;29.49;50.13;97917.50;106961;1275;22552;-79
2023/06/21 08:29:41;;;;;;;15.00;9.10;;;;;;;29.57;49.20;97917.98;107036;1278;22542;-80
2023/06/21 08:32:07;;;;;;;9.90;8.80;;;;;;;29.53;48.52;97917.34;106943;1277;22581;-80
2023/06/21 08:34:34;;;;;;;10.80;8.70;;;;;;;29.61;48.69;97921.56;106973;1278;22601;-80
2023/06/21 08:37:01;;;;;;;9.30;8.20;;;;;;;29.83;48.74;97917.98;106974;1278;22570;-79
2023/06/21 08:39:27;;;;;;;8.70;7.90;;;;;;;30.03;48.36;97920.28;107051;1277;26303;-81
2023/06/21 08:41:58;;;;;;;10.30;8.70;;;;;;;30.22;48.58;97919.90;107082;1278;25437;-80
2023/06/21 08:44:25;;;;;;;10.80;8.00;;;;;;;30.38;47.84;97925.20;107030;1255;24334;-80
2023/06/21 08:46:55;;;;;;;9.50;8.60;;;;;;;30.48;47.74;97922.37;107029;1278;24127;-80
2023/06/21 08:49:26;;;;;;;10.70;8.00;;;;;;;30.59;47.81;97921.16;107079;1277;24228;-82
2023/06/21 08:51:55;;;;;;;13.80;8.30;;;;;;;30.77;47.65;97918.86;107137;1277;25291;-81
2023/06/21 08:54:29;;;;;;;10.40;8.20;;;;;;;30.94;46.97;97919.48;106935;1278;25294;-80
2023/06/21 08:57:13;;;;;;;9.40;7.50;;;;;;;31.05;46.08;97917.46;107022;1277;22491;-79
2023/06/21 08:59:49;;;;;;;11.20;7.70;;;;;;;31.14;45.70;97921.14;106765;1277;25164;-80
2023/06/21 09:02:42;;;;;;;11.10;7.40;;;;;;;31.13;45.42;97919.56;106966;1278;22649;-80
2023/06/21 09:05:25;;;;;;;8.20;7.30;;;;;;;31.15;45.23;97923.20;106822;1278;23425;-79
2023/06/21 09:07:53;;;;;;;14.20;7.80;;;;;;;31.24;44.98;97924.55;106646;1278;23202;-79
2023/06/21 09:10:21;;;;;;;14.30;8.00;;;;;;;31.24;44.04;97926.62;106672;1277;23530;-80
2023/06/21 09:12:49;;;;;;;14.30;8.50;;;;;;;31.08;43.28;97927.01;107118;1277;22680;-80
2023/06/21 09:15:18;;;;;;;11.20;7.40;;;;;;;31.01;43.96;97934.02;106952;1278;22527;-80
2023/06/21 09:17:47;;;;;;;13.20;7.90;;;;;;;30.96;43.88;97930.27;107009;1278;22581;-80
2023/06/21 09:20:15;;;;;;;8.70;7.60;;;;;;;30.94;43.97;97932.77;106913;1278;22545;-80
2023/06/21 09:22:43;;;;;;;9.80;7.80;;;;;;;30.85;43.44;97935.20;107068;1277;22713;-80
2023/06/21 09:25:10;;;;;;;8.50;7.20;;;;;;;30.74;43.65;97937.56;107156;1277;22530;-80
2023/06/21 09:27:40;;;;;;;10.30;7.80;;;;;;;30.67;43.62;97937.19;107006;1277;22652;-80
2023/06/21 09:30:10;;;;;;;11.00;7.80;;;;;;;30.61;43.54;97935.73;106998;1277;22992;-80
2023/06/21 09:32:57;;;;;;;12.40;8.50;;;;;;;30.51;43.51;97935.88;106899;1277;22751;-80
2023/06/21 09:35:24;;;;;;;9.40;7.40;;;;;;;30.35;43.77;97942.02;107071;1278;22638;-80
2023/06/21 09:37:51;;;;;;;15.00;7.90;;;;;;;30.25;43.61;97941.92;106986;1277;25275;-79
2023/06/21 09:40:18;;;;;;;14.20;8.50;;;;;;;30.14;43.86;97942.28;106822;1277;23323;-79
2023/06/21 09:42:45;;;;;;;10.10;7.70;;;;;;;30.00;43.83;97942.23;107011;1278;22560;-79
2023/06/21 09:45:17;;;;;;;10.90;7.60;;;;;;;29.87;43.98;97946.06;107025;1278;22549;-80
2023/06/21 09:47:43;;;;;;;10.50;8.00;;;;;;;29.62;44.24;97947.73;106985;1277;25297;-80
2023/06/21 09:50:11;;;;;;;12.20;8.30;;;;;;;29.37;44.89;97942.67;107049;1278;22533;-80
2023/06/21 09:52:44;;;;;;;12.20;8.30;;;;;;;29.27;45.33;97946.98;107004;1277;23942;-80
2023/06/21 09:55:15;;;;;;;9.90;8.20;;;;;;;29.11;45.81;97943.38;106975;1277;24672;-80
2023/06/21 09:57:42;;;;;;;12.40;8.00;;;;;;;28.94;46.17;97944.57;107059;1278;25018;-80
2023/06/21 10:00:10;;;;;;;9.80;7.70;;;;;;;28.84;46.53;97949.64;106970;1278;22694;-80
2023/06/21 10:02:40;;;;;;;11.30;8.70;;;;;;;28.76;46.94;97949.50;107086;1278;22528;-80
2023/06/21 10:05:18;;;;;;;14.50;8.70;;;;;;;28.71;46.88;97951.64;107144;1277;25476;-80
2023/06/21 10:07:46;;;;;;;10.90;8.60;;;;;;;28.62;47.25;97959.79;108537;1277;24305;-81
2023/06/21 10:10:13;;;;;;;11.40;9.00;;;;;;;28.58;47.70;97957.77;108327;1277;23407;-80
2023/06/21 10:12:50;;;;;;;9.30;8.20;;;;;;;28.54;47.72;97957.60;107176;1278;25594;-80
2023/06/21 10:15:21;;;;;;;9.20;7.90;;;;;;;28.49;47.93;97957.50;107071;1278;23309;-80
2023/06/21 10:17:48;;;;;;;9.60;8.50;;;;;;;28.54;48.62;97961.01;107072;1277;24233;-80
2023/06/21 10:20:32;;;;;;;14.20;8.70;;;;;;;28.55;48.54;97959.39;107116;1277;25433;-80
2023/06/21 10:23:02;;;;;;;10.70;9.50;;;;;;;28.58;48.67;97960.63;107156;1277;24650;-79
2023/06/21 10:25:30;;;;;;;10.50;8.60;;;;;;;28.64;48.64;97964.25;106736;1278;23857;-79
2023/06/21 10:28:00;;;;;;;11.00;9.40;;;;;;;28.67;48.59;97960.34;106721;1278;22884;-79
2023/06/21 10:30:28;;;;;;;11.20;8.90;;;;;;;28.71;48.55;97961.09;106786;1278;24405;-80
2023/06/21 10:33:00;;;;;;;12.50;10.20;;;;;;;28.70;48.36;97964.02;107047;1277;22643;-80
2023/06/21 10:35:30;;;;;;;11.10;10.00;;;;;;;28.63;48.51;97961.82;106912;1278;22684;-81
2023/06/21 10:38:29;;;;;;;14.00;9.40;;;;;;;28.62;48.81;97961.98;107004;1277;22643;-80
2023/06/21 10:40:57;;;;;;;13.80;9.50;;;;;;;28.60;48.70;97959.64;106953;1278;22655;-80
2023/06/21 10:43:24;;;;;;;16.70;10.00;;;;;;;28.52;49.28;97957.46;106957;1278;25397;-80
2023/06/21 10:45:53;;;;;;;13.90;10.00;;;;;;;28.52;49.51;97959.77;107013;1277;22554;-80
2023/06/21 10:48:21;;;;;;;15.20;10.90;;;;;;;28.44;49.81;97964.14;107047;1266;22734;-80
2023/06/21 10:50:50;;;;;;;11.70;9.90;;;;;;;28.34;50.05;97970.17;106990;1278;22573;-80
2023/06/21 10:53:19;;;;;;;12.10;10.30;;;;;;;28.26;50.09;97972.35;106988;1278;25472;-80
2023/06/21 10:55:49;;;;;;;14.50;10.30;;;;;;;28.21;50.24;97974.61;106990;1278;22639;-80
2023/06/21 10:58:16;;;;;;;14.40;9.90;;;;;;;28.17;50.62;97973.88;107013;1278;22608;-80
2023/06/21 11:00:47;;;;;;;15.40;10.30;;;;;;;28.11;50.71;97979.11;107009;1278;25338;-80
2023/06/21 11:03:16;;;;;;;13.80;10.30;;;;;;;28.05;51.02;97980.98;107048;1277;22530;-80
2023/06/21 11:05:44;;;;;;;14.00;10.80;;;;;;;27.95;51.53;97982.36;107049;1278;22532;-80
2023/06/21 11:08:14;;;;;;;15.10;10.40;;;;;;;27.74;52.66;97983.67;106889;1278;22608;-80
2023/06/21 11:10:40;;;;;;;16.00;11.50;;;;;;;27.52;53.79;97995.34;106861;1278;22560;-81
2023/06/21 11:13:08;;;;;;;16.70;11.20;;;;;;;27.25;54.83;98001.98;107412;1278;22530;-81
2023/06/21 11:15:38;;;;;;;16.70;12.20;;;;;;;26.97;56.60;98008.16;107823;1278;22539;-81
2023/06/21 11:18:06;;;;;;;18.70;12.00;;;;;;;26.59;58.67;98005.85;107458;1277;22543;-82
2023/06/21 11:20:49;;;;;;;15.40;12.60;;;;;;;26.20;59.48;98013.02;107098;1278;24256;-81